createdAt,value
2022-09-12T00:00:04.851Z,5.68
2022-09-12T00:02:33.135Z,5.57
2022-09-12T00:05:06.287Z,6.50
2022-09-12T00:07:35.275Z,5.80
2022-09-12T00:10:03.510Z,5.90
2022-09-12T00:12:32.053Z,5.93
2022-09-12T00:15:03.214Z,5.63
2022-09-12T00:17:31.895Z,6.35
2022-09-12T00:20:05.827Z,5.93
2022-09-12T00:22:34.587Z,5.63
2022-09-12T00:25:03.592Z,5.38
2022-09-12T00:27:31.911Z,5.68
2022-09-12T00:30:02.759Z,5.63
2022-09-12T00:32:33.890Z,6.07
2022-09-12T00:35:03.723Z,5.90
2022-09-12T00:37:32.133Z,5.70
2022-09-12T00:40:03.429Z,5.88
2022-09-12T00:42:31.658Z,5.28
2022-09-12T00:45:03.261Z,6.28
2022-09-12T00:47:33.068Z,5.90
2022-09-12T00:50:12.496Z,6.10
2022-09-12T00:52:46.416Z,5.72
2022-09-12T00:55:47.508Z,5.93
2022-09-12T00:58:45.732Z,5.60
2022-09-12T01:01:18.104Z,5.85
2022-09-12T01:04:04.206Z,5.72
2022-09-12T01:06:41.721Z,5.53
2022-09-12T01:09:31.481Z,5.65
2022-09-12T01:12:03.769Z,5.55
2022-09-12T01:17:42.076Z,6.03
2022-09-12T01:20:35.119Z,4.95
2022-09-12T01:23:13.680Z,5.47
2022-09-12T01:26:34.159Z,5.85
2022-09-12T01:29:32.645Z,5.97
2022-09-12T01:32:40.672Z,5.18
2022-09-12T01:35:38.108Z,5.97
2022-09-12T01:38:41.148Z,6.13
2022-09-12T01:42:03.318Z,5.80
2022-09-12T01:44:43.504Z,5.78
2022-09-12T01:47:54.656Z,5.78
2022-09-12T01:50:35.135Z,6.65
2022-09-12T01:53:39.066Z,5.78
2022-09-12T01:56:27.829Z,5.82
2022-09-12T01:59:49.790Z,6.30
2022-09-12T02:02:38.855Z,6.20
2022-09-12T02:05:35.653Z,6.18
2022-09-12T02:08:46.252Z,6.20
2022-09-12T02:11:40.844Z,6.18
2022-09-12T02:14:35.198Z,6.50
2022-09-12T02:17:30.936Z,6.95
2022-09-12T02:20:47.494Z,5.50
2022-09-12T02:23:33.983Z,6.43
2022-09-12T02:26:31.224Z,6.30
2022-09-12T02:28:59.632Z,6.10
2022-09-12T02:45:01.044Z,6.88
2022-09-12T02:47:35.576Z,6.43
2022-09-12T02:50:06.230Z,6.05
2022-09-12T02:52:56.945Z,5.88
2022-09-12T02:55:34.429Z,6.65
2022-09-12T02:58:11.298Z,7.15
2022-09-12T03:01:58.572Z,6.85
2022-09-12T03:05:06.740Z,6.20
2022-09-12T03:08:11.353Z,7.65
2022-09-12T03:10:58.729Z,6.50
2022-09-12T03:20:38.940Z,5.65
2022-09-12T03:23:36.542Z,7.60
2022-09-12T03:26:24.322Z,6.57
2022-09-12T03:29:00.142Z,6.50
2022-09-12T03:31:28.625Z,5.65
2022-09-12T03:33:58.611Z,6.18
2022-09-12T03:36:59.045Z,5.90
2022-09-12T03:39:28.868Z,5.57
2022-09-12T03:41:58.407Z,5.60
2022-09-12T03:44:27.305Z,6.63
2022-09-12T03:46:58.252Z,6.32
2022-09-12T03:49:29.422Z,6.68
2022-09-12T03:51:57.628Z,6.72
2022-09-12T03:54:26.443Z,6.80
2022-09-12T03:56:56.952Z,7.53
2022-09-12T03:59:27.523Z,6.55
2022-09-12T04:01:58.816Z,6.70
2022-09-12T04:04:27.103Z,7.30
2022-09-12T04:06:56.165Z,7.60
2022-09-12T04:09:27.386Z,7.60
2022-09-12T04:11:59.382Z,6.93
2022-09-12T04:14:27.560Z,7.75
2022-09-12T04:17:02.343Z,7.43
2022-09-12T04:19:31.049Z,7.80
2022-09-12T04:21:59.286Z,7.00
2022-09-12T04:24:27.467Z,7.25
2022-09-12T04:26:55.857Z,6.60
2022-09-12T04:29:26.882Z,7.40
2022-09-12T04:31:58.391Z,7.28
2022-09-12T04:34:26.916Z,7.32
2022-09-12T04:36:55.448Z,8.20
2022-09-12T04:39:26.443Z,7.25
2022-09-12T04:44:25.513Z,7.18
2022-09-12T04:46:56.601Z,7.75
2022-09-12T04:49:27.445Z,8.05
2022-09-12T04:51:58.400Z,7.38
2022-09-12T04:56:57.299Z,7.50
2022-09-12T04:59:26.199Z,7.72
2022-09-12T05:01:55.095Z,7.65
2022-09-12T05:04:26.032Z,9.25
2022-09-12T05:09:22.562Z,7.50
2022-09-12T05:12:05.071Z,7.43
2022-09-12T05:14:39.952Z,7.40
2022-09-12T05:17:08.268Z,8.00
2022-09-12T05:19:39.439Z,7.07
2022-09-12T05:22:07.772Z,7.65
2022-09-12T05:24:36.817Z,7.18
2022-09-12T05:27:05.649Z,7.82
2022-09-12T05:29:37.837Z,7.65
2022-09-12T05:32:06.484Z,7.57
2022-09-12T05:34:56.085Z,7.38
2022-09-12T05:37:24.801Z,7.85
2022-09-12T05:39:53.779Z,8.07
2022-09-12T05:42:24.872Z,7.40
2022-09-12T05:45:20.802Z,7.13
2022-09-12T05:47:55.676Z,7.32
2022-09-12T05:50:24.210Z,7.40
2022-09-12T05:53:22.481Z,8.23
2022-09-12T05:56:24.613Z,7.50
2022-09-12T05:59:22.879Z,7.78
2022-09-12T06:01:53.772Z,6.95
2022-09-12T06:04:22.141Z,6.78
2022-09-12T06:06:53.473Z,6.82
2022-09-12T06:09:26.547Z,7.60
2022-09-12T06:12:03.559Z,7.47
2022-09-12T06:14:31.834Z,7.55
2022-09-12T06:17:06.811Z,7.70
2022-09-12T06:19:36.311Z,8.23
2022-09-12T06:22:14.471Z,7.65
2022-09-12T06:24:49.828Z,7.28
2022-09-12T06:27:21.028Z,8.20
2022-09-12T06:29:49.664Z,7.35
2022-09-12T06:32:18.440Z,7.70
2022-09-12T06:34:52.948Z,7.45
2022-09-12T06:37:21.102Z,7.85
2022-09-12T06:39:51.986Z,7.57
2022-09-12T06:44:51.435Z,7.05
2022-09-12T06:47:22.658Z,7.95
2022-09-12T06:49:51.833Z,7.35
2022-09-12T06:52:20.073Z,7.53
2022-09-12T06:54:49.983Z,7.20
2022-09-12T06:57:20.830Z,6.90
2022-09-12T06:59:49.428Z,7.45
2022-09-12T07:02:20.608Z,6.97
2022-09-12T07:04:50.807Z,7.00
2022-09-12T07:07:22.253Z,7.33
2022-09-12T07:09:50.899Z,7.50
2022-09-12T07:12:22.056Z,6.53
2022-09-12T07:14:50.308Z,7.03
2022-09-12T07:17:19.251Z,7.18
2022-09-12T07:19:50.131Z,6.85
2022-09-12T07:22:44.933Z,7.90
2022-09-12T07:25:18.679Z,7.05
2022-09-12T07:27:51.136Z,7.50
2022-09-12T07:30:19.839Z,6.97
2022-09-12T07:32:57.535Z,7.10
2022-09-12T07:35:48.810Z,6.45
2022-09-12T07:40:49.212Z,6.78
2022-09-12T07:43:20.229Z,6.32
2022-09-12T07:48:18.249Z,7.05
2022-09-12T07:50:46.826Z,7.18
2022-09-12T07:53:18.594Z,7.07
2022-09-12T07:55:57.253Z,6.20
2022-09-12T07:58:30.717Z,6.93
2022-09-12T08:01:32.558Z,6.93
2022-09-12T08:04:02.893Z,7.20
2022-09-12T08:06:34.941Z,6.78
2022-09-12T08:09:03.938Z,6.10
2022-09-12T08:11:35.785Z,6.20
2022-09-12T08:14:06.414Z,6.30
2022-09-12T08:16:38.478Z,6.20
2022-09-12T08:19:13.201Z,6.75
2022-09-12T08:21:41.512Z,5.90
2022-09-12T08:24:38.033Z,5.88
2022-09-12T08:27:40.197Z,6.13
2022-09-12T08:30:09.667Z,6.60
2022-09-12T08:32:37.998Z,6.60
2022-09-12T08:35:15.869Z,5.97
2022-09-12T08:37:44.653Z,5.82
2022-09-12T08:40:19.667Z,5.78
2022-09-12T08:43:02.923Z,6.45
2022-09-12T08:46:03.532Z,6.80
2022-09-12T08:48:59.709Z,5.90
2022-09-12T08:51:32.129Z,6.05
2022-09-12T08:54:21.653Z,6.28
2022-09-12T08:57:00.576Z,6.28
2022-09-12T08:59:49.520Z,6.07
2022-09-12T09:02:59.106Z,6.88
2022-09-12T09:05:42.395Z,6.43
2022-09-12T09:08:31.457Z,6.15
2022-09-12T09:11:11.991Z,7.03
2022-09-12T09:14:07.903Z,6.90
2022-09-12T09:16:48.245Z,7.13
2022-09-12T09:19:47.679Z,7.00
2022-09-12T09:23:12.773Z,6.90
2022-09-12T09:26:15.524Z,7.18
2022-09-12T09:28:52.970Z,6.07
2022-09-12T09:31:24.285Z,7.05
2022-09-12T09:33:59.858Z,6.50
2022-09-12T09:36:55.853Z,7.07
2022-09-12T09:39:43.300Z,7.03
2022-09-12T09:42:50.710Z,6.93
2022-09-12T09:45:25.006Z,7.07
2022-09-12T09:48:16.001Z,7.25
2022-09-12T09:50:45.094Z,6.65
2022-09-12T09:53:41.602Z,6.88
2022-09-12T09:56:36.854Z,6.57
2022-09-12T09:59:18.385Z,7.72
2022-09-12T10:02:11.216Z,6.40
2022-09-12T10:05:04.242Z,7.10
2022-09-12T10:07:36.473Z,6.82
2022-09-12T10:10:24.829Z,8.10
2022-09-12T10:13:25.222Z,6.22
2022-09-12T10:16:22.825Z,6.45
2022-09-12T10:18:53.396Z,6.88
2022-09-12T10:21:29.190Z,6.85
2022-09-12T10:24:20.027Z,7.00
2022-09-12T10:27:13.941Z,6.20
2022-09-12T10:30:13.967Z,6.55
2022-09-12T10:32:46.375Z,6.43
2022-09-12T10:35:29.883Z,7.15
2022-09-12T10:38:07.965Z,6.93
2022-09-12T10:40:42.118Z,6.70
2022-09-12T10:43:39.270Z,6.63
2022-09-12T10:46:19.093Z,6.70
2022-09-12T10:48:52.538Z,6.97
2022-09-12T10:51:26.580Z,7.40
2022-09-12T10:54:02.214Z,7.13
2022-09-12T10:56:42.921Z,8.25
2022-09-12T10:59:23.765Z,7.22
2022-09-12T11:02:33.656Z,7.45
2022-09-12T11:05:07.474Z,8.07
2022-09-12T11:07:49.358Z,8.63
2022-09-12T11:10:22.092Z,7.35
2022-09-12T11:13:08.586Z,8.48
2022-09-12T11:15:55.680Z,8.48
2022-09-12T11:18:51.733Z,8.25
2022-09-12T11:21:36.061Z,7.95
2022-09-12T11:24:44.132Z,8.48
2022-09-12T11:27:34.187Z,9.35
2022-09-12T11:30:36.133Z,8.05
2022-09-12T11:33:36.866Z,8.57
2022-09-12T11:36:32.165Z,8.10
2022-09-12T11:39:18.765Z,7.63
2022-09-12T11:42:10.880Z,7.57
2022-09-12T11:44:51.261Z,8.05
2022-09-12T11:47:42.699Z,8.70
2022-09-12T11:50:30.093Z,7.57
2022-09-12T11:53:12.384Z,7.93
2022-09-12T11:56:04.902Z,8.60
2022-09-12T11:58:34.320Z,8.10
2022-09-12T12:01:48.561Z,8.50
2022-09-12T12:04:33.056Z,7.70
2022-09-12T12:07:12.755Z,8.18
2022-09-12T12:10:14.492Z,7.88
2022-09-12T12:12:43.817Z,8.13
2022-09-12T12:15:23.182Z,8.50
2022-09-12T12:18:20.384Z,8.57
2022-09-12T12:20:48.941Z,7.72
2022-09-12T12:23:40.584Z,8.52
2022-09-12T12:26:43.538Z,8.90
2022-09-12T12:29:15.131Z,8.40
2022-09-12T12:32:04.936Z,8.05
2022-09-12T12:34:44.584Z,7.82
2022-09-12T12:37:26.897Z,7.97
2022-09-12T12:40:11.730Z,7.28
2022-09-12T14:47:29.591Z,11.57
2022-09-12T16:16:59.996Z,11.15
2022-09-12T16:22:51.446Z,11.95
2022-09-12T16:25:23.663Z,10.15
2022-09-12T16:27:54.004Z,10.63
2022-09-12T16:30:25.406Z,10.77
2022-09-12T16:33:21.131Z,11.40
2022-09-12T16:36:50.737Z,11.10
2022-09-12T16:39:22.692Z,11.02
2022-09-12T16:42:21.976Z,11.50
2022-09-12T16:45:20.492Z,10.52
2022-09-12T16:47:52.064Z,10.65
2022-09-12T16:50:20.518Z,11.43
2022-09-12T16:53:25.423Z,11.75
2022-09-12T16:56:25.618Z,11.02
2022-09-12T16:58:54.887Z,10.68
2022-09-12T17:08:19.328Z,12.30
2022-09-12T17:10:50.067Z,11.40
2022-09-12T17:13:20.965Z,11.07
2022-09-12T17:15:49.198Z,11.25
2022-09-12T17:18:20.836Z,11.82
2022-09-12T17:20:51.720Z,11.98
2022-09-12T17:23:25.878Z,11.88
2022-09-12T17:25:59.424Z,10.27
2022-09-12T17:29:26.435Z,12.68
2022-09-12T17:31:55.950Z,12.40
2022-09-12T17:34:24.341Z,12.85
2022-09-12T17:37:17.125Z,12.65
2022-09-12T17:39:48.514Z,11.15
2022-09-12T17:42:20.984Z,12.45
2022-09-12T17:44:49.259Z,11.68
2022-09-12T17:47:17.444Z,13.05
2022-09-12T17:49:48.792Z,11.90
2022-09-12T17:52:17.043Z,11.50
2022-09-12T17:54:48.414Z,13.07
2022-09-12T17:57:19.707Z,11.63
2022-09-12T17:59:47.944Z,11.45
2022-09-12T18:02:19.583Z,11.48
2022-09-12T18:04:49.145Z,11.40
2022-09-12T18:07:19.833Z,11.45
2022-09-12T18:09:48.692Z,11.57
2022-09-12T18:12:20.806Z,9.95
2022-09-12T18:14:49.005Z,12.13
2022-09-12T18:17:18.102Z,11.43
2022-09-12T18:19:50.335Z,11.00
2022-09-12T18:23:20.440Z,11.23
2022-09-12T18:26:46.574Z,11.05
2022-09-12T18:29:58.916Z,10.20
2022-09-12T18:32:49.643Z,10.32
2022-09-12T18:35:47.675Z,10.57
2022-09-12T18:38:48.732Z,11.05
2022-09-12T18:41:46.763Z,12.38
2022-09-12T18:44:45.990Z,11.10
2022-09-12T18:50:50.120Z,11.20
2022-09-12T19:00:00.852Z,10.90
2022-09-12T19:02:51.939Z,10.93
2022-09-12T19:08:46.786Z,10.02
2022-09-12T19:14:48.598Z,10.95
2022-09-12T19:20:45.538Z,10.40
2022-09-12T19:23:44.289Z,10.52
2022-09-12T19:26:49.363Z,9.85
2022-09-12T19:29:20.624Z,10.48
2022-09-12T19:31:52.118Z,9.40
2022-09-12T19:35:14.076Z,10.50
2022-09-12T19:37:49.634Z,10.15
2022-09-12T19:40:20.607Z,9.98
2022-09-12T19:42:48.921Z,10.07
2022-09-12T19:45:17.517Z,10.15
2022-09-12T19:47:47.926Z,9.77
2022-09-12T19:50:17.165Z,10.32
2022-09-12T19:52:45.512Z,9.75
2022-09-12T19:55:16.843Z,9.15
2022-09-12T19:57:45.133Z,9.15
2022-09-12T20:00:14.005Z,9.85
2022-09-12T20:02:42.250Z,9.38
2022-09-12T20:05:13.567Z,10.00
2022-09-12T20:07:41.726Z,9.48
2022-09-12T20:14:16.583Z,10.05
2022-09-12T20:17:11.091Z,10.18
2022-09-12T20:19:42.061Z,8.63
2022-09-12T20:22:40.816Z,9.43
2022-09-12T20:25:12.417Z,9.48
2022-09-12T20:35:10.677Z,9.20
2022-09-12T20:43:13.987Z,9.18
2022-09-12T20:51:12.127Z,9.13
2022-09-12T20:53:42.696Z,8.82
2022-09-12T20:56:11.084Z,8.98
2022-09-12T20:58:44.399Z,9.73
2022-09-12T21:01:16.579Z,8.98
2022-09-12T21:04:14.893Z,9.40
2022-09-12T21:07:13.700Z,9.45
2022-09-12T21:09:41.326Z,8.05
2022-09-12T21:12:10.017Z,8.35
2022-09-12T21:14:41.649Z,9.55
2022-09-12T21:17:09.843Z,9.93
2022-09-12T21:19:38.115Z,8.48
2022-09-12T21:22:12.319Z,9.60
2022-09-12T21:24:40.808Z,9.07
2022-09-12T21:27:12.782Z,9.27
2022-09-12T21:29:41.031Z,9.48
2022-09-12T21:32:13.455Z,8.90
2022-09-12T21:34:42.739Z,8.68
2022-09-12T21:37:10.927Z,8.60
2022-09-12T21:39:39.174Z,8.60
2022-09-12T21:42:07.601Z,8.52
2022-09-12T21:44:38.458Z,8.70
2022-09-12T21:47:06.892Z,9.40
2022-09-12T21:49:35.162Z,9.20
2022-09-12T21:52:05.883Z,9.48
2022-09-12T21:57:07.061Z,9.05
2022-09-12T21:59:35.392Z,9.13
2022-09-12T22:02:11.684Z,9.07
2022-09-12T22:04:41.016Z,9.00
2022-09-12T22:07:10.278Z,8.80
2022-09-12T22:09:38.511Z,8.95
2022-09-12T22:12:09.770Z,9.38
2022-09-12T22:14:38.075Z,9.50
2022-09-12T22:17:11.039Z,9.15
2022-09-12T22:19:39.686Z,8.80
2022-09-12T22:22:38.399Z,8.65
2022-09-12T22:25:37.324Z,8.45
2022-09-12T22:28:40.428Z,8.45
2022-09-12T22:31:37.761Z,7.72
2022-09-12T22:34:36.837Z,8.27
2022-09-12T22:40:24.868Z,7.63
2022-09-12T22:47:42.036Z,6.00
2022-09-12T22:50:42.310Z,5.85
2022-09-12T23:06:37.882Z,4.78
2022-09-12T23:16:05.990Z,5.05
2022-09-12T23:19:46.268Z,5.00
